sensor_id;sensor_type;location;lat;lon;timestamp;P1;durP1;ratioP1;P2;durP2;ratioP2
14698;SDS011;7439;50.804;4.602;2022-11-20T00:00:40;935.10;;;876.80;;
14698;SDS011;7439;50.804;4.602;2022-11-20T00:03:08;936.60;;;878.33;;
14698;SDS011;7439;50.804;4.602;2022-11-20T00:05:35;933.20;;;875.23;;
14698;SDS011;7439;50.804;4.602;2022-11-20T00:08:03;937.83;;;879.73;;
14698;SDS011;7439;50.804;4.602;2022-11-20T00:10:30;951.13;;;892.23;;
14698;SDS011;7439;50.804;4.602;2022-11-20T00:12:58;937.90;;;878.20;;
14698;SDS011;7439;50.804;4.602;2022-11-20T00:15:26;936.30;;;876.83;;
14698;SDS011;7439;50.804;4.602;2022-11-20T00:17:54;939.27;;;881.27;;
14698;SDS011;7439;50.804;4.602;2022-11-20T00:20:21;930.23;;;871.97;;
14698;SDS011;7439;50.804;4.602;2022-11-20T00:22:49;939.60;;;881.50;;
14698;SDS011;7439;50.804;4.602;2022-11-20T00:25:16;943.57;;;884.97;;
14698;SDS011;7439;50.804;4.602;2022-11-20T00:27:44;941.47;;;883.17;;
14698;SDS011;7439;50.804;4.602;2022-11-20T00:30:11;941.87;;;883.30;;
14698;SDS011;7439;50.804;4.602;2022-11-20T00:32:40;938.07;;;879.80;;
14698;SDS011;7439;50.804;4.602;2022-11-20T00:35:07;943.60;;;885.27;;
14698;SDS011;7439;50.804;4.602;2022-11-20T00:37:35;949.50;;;890.70;;
14698;SDS011;7439;50.804;4.602;2022-11-20T00:40:02;940.03;;;881.63;;
14698;SDS011;7439;50.804;4.602;2022-11-20T00:42:30;938.33;;;880.27;;
14698;SDS011;7439;50.804;4.602;2022-11-20T00:44:57;937.40;;;879.27;;
14698;SDS011;7439;50.804;4.602;2022-11-20T00:47:25;939.40;;;881.03;;
14698;SDS011;7439;50.804;4.602;2022-11-20T00:49:54;936.77;;;878.57;;
14698;SDS011;7439;50.804;4.602;2022-11-20T00:52:21;945.07;;;886.47;;
14698;SDS011;7439;50.804;4.602;2022-11-20T00:54:48;943.00;;;883.83;;
14698;SDS011;7439;50.804;4.602;2022-11-20T00:57:16;938.47;;;879.67;;
14698;SDS011;7439;50.804;4.602;2022-11-20T00:59:43;941.30;;;882.67;;
14698;SDS011;7439;50.804;4.602;2022-11-20T01:02:10;939.23;;;880.77;;
14698;SDS011;7439;50.804;4.602;2022-11-20T01:04:38;941.77;;;883.17;;
14698;SDS011;7439;50.804;4.602;2022-11-20T01:07:07;935.60;;;877.27;;
14698;SDS011;7439;50.804;4.602;2022-11-20T01:09:34;942.70;;;884.10;;
14698;SDS011;7439;50.804;4.602;2022-11-20T01:12:02;935.87;;;877.43;;
14698;SDS011;7439;50.804;4.602;2022-11-20T01:14:29;926.03;;;868.40;;
14698;SDS011;7439;50.804;4.602;2022-11-20T01:16:56;926.00;;;867.77;;
14698;SDS011;7439;50.804;4.602;2022-11-20T01:19:24;936.60;;;878.17;;
14698;SDS011;7439;50.804;4.602;2022-11-20T01:21:52;939.43;;;880.53;;
14698;SDS011;7439;50.804;4.602;2022-11-20T01:24:21;941.67;;;882.40;;
14698;SDS011;7439;50.804;4.602;2022-11-20T01:26:49;938.40;;;878.83;;
14698;SDS011;7439;50.804;4.602;2022-11-20T01:29:18;943.83;;;884.47;;
14698;SDS011;7439;50.804;4.602;2022-11-20T01:31:46;952.37;;;892.17;;
14698;SDS011;7439;50.804;4.602;2022-11-20T01:34:14;946.83;;;887.13;;
14698;SDS011;7439;50.804;4.602;2022-11-20T01:36:42;945.10;;;885.60;;
14698;SDS011;7439;50.804;4.602;2022-11-20T01:39:10;936.63;;;877.30;;
14698;SDS011;7439;50.804;4.602;2022-11-20T01:41:40;941.17;;;882.13;;
14698;SDS011;7439;50.804;4.602;2022-11-20T01:47:06;939.30;;;880.20;;
14698;SDS011;7439;50.804;4.602;2022-11-20T01:49:36;935.83;;;877.37;;
14698;SDS011;7439;50.804;4.602;2022-11-20T01:52:05;935.23;;;876.40;;
14698;SDS011;7439;50.804;4.602;2022-11-20T01:54:35;939.57;;;880.87;;
14698;SDS011;7439;50.804;4.602;2022-11-20T01:57:04;941.40;;;882.67;;
14698;SDS011;7439;50.804;4.602;2022-11-20T01:59:32;931.27;;;873.03;;
14698;SDS011;7439;50.804;4.602;2022-11-20T02:02:00;926.53;;;868.73;;
14698;SDS011;7439;50.804;4.602;2022-11-20T02:04:28;929.10;;;871.17;;
14698;SDS011;7439;50.804;4.602;2022-11-20T02:06:57;932.97;;;874.93;;
14698;SDS011;7439;50.804;4.602;2022-11-20T02:09:26;931.50;;;873.07;;
14698;SDS011;7439;50.804;4.602;2022-11-20T02:11:53;933.40;;;875.13;;
14698;SDS011;7439;50.804;4.602;2022-11-20T02:14:22;946.07;;;886.77;;
14698;SDS011;7439;50.804;4.602;2022-11-20T02:16:49;930.80;;;872.13;;
14698;SDS011;7439;50.804;4.602;2022-11-20T02:19:21;920.67;;;862.90;;
14698;SDS011;7439;50.804;4.602;2022-11-20T02:21:51;929.10;;;870.73;;
14698;SDS011;7439;50.804;4.602;2022-11-20T02:24:23;933.87;;;875.57;;
14698;SDS011;7439;50.804;4.602;2022-11-20T02:26:51;940.07;;;880.97;;
14698;SDS011;7439;50.804;4.602;2022-11-20T02:29:23;937.60;;;878.73;;
14698;SDS011;7439;50.804;4.602;2022-11-20T02:31:51;934.03;;;875.47;;
14698;SDS011;7439;50.804;4.602;2022-11-20T02:34:19;933.60;;;874.17;;
14698;SDS011;7439;50.804;4.602;2022-11-20T02:36:46;938.07;;;878.63;;
14698;SDS011;7439;50.804;4.602;2022-11-20T02:39:15;938.23;;;879.00;;
14698;SDS011;7439;50.804;4.602;2022-11-20T02:41:44;937.73;;;878.53;;
14698;SDS011;7439;50.804;4.602;2022-11-20T02:44:11;946.20;;;885.37;;
14698;SDS011;7439;50.804;4.602;2022-11-20T02:46:39;938.90;;;879.17;;
14698;SDS011;7439;50.804;4.602;2022-11-20T02:49:06;929.33;;;870.10;;
14698;SDS011;7439;50.804;4.602;2022-11-20T02:51:33;937.87;;;877.83;;
14698;SDS011;7439;50.804;4.602;2022-11-20T02:54:01;936.33;;;876.50;;
14698;SDS011;7439;50.804;4.602;2022-11-20T02:56:28;933.80;;;874.40;;
14698;SDS011;7439;50.804;4.602;2022-11-20T02:58:57;938.10;;;878.27;;
14698;SDS011;7439;50.804;4.602;2022-11-20T03:01:24;931.60;;;872.27;;
14698;SDS011;7439;50.804;4.602;2022-11-20T03:03:52;942.50;;;882.67;;
14698;SDS011;7439;50.804;4.602;2022-11-20T03:06:19;935.97;;;876.30;;
14698;SDS011;7439;50.804;4.602;2022-11-20T03:08:47;932.50;;;872.80;;
14698;SDS011;7439;50.804;4.602;2022-11-20T03:11:15;930.93;;;870.97;;
14698;SDS011;7439;50.804;4.602;2022-11-20T03:13:42;943.53;;;882.20;;
14698;SDS011;7439;50.804;4.602;2022-11-20T03:16:11;936.67;;;876.57;;
14698;SDS011;7439;50.804;4.602;2022-11-20T03:18:39;936.07;;;876.20;;
14698;SDS011;7439;50.804;4.602;2022-11-20T03:21:07;934.40;;;875.10;;
14698;SDS011;7439;50.804;4.602;2022-11-20T03:23:35;940.23;;;880.97;;
14698;SDS011;7439;50.804;4.602;2022-11-20T03:26:09;940.77;;;880.53;;
14698;SDS011;7439;50.804;4.602;2022-11-20T03:28:36;942.13;;;882.17;;
14698;SDS011;7439;50.804;4.602;2022-11-20T03:31:05;943.47;;;882.90;;
14698;SDS011;7439;50.804;4.602;2022-11-20T03:33:33;947.77;;;886.70;;
14698;SDS011;7439;50.804;4.602;2022-11-20T03:36:01;948.97;;;887.90;;
14698;SDS011;7439;50.804;4.602;2022-11-20T03:38:29;957.13;;;895.03;;
14698;SDS011;7439;50.804;4.602;2022-11-20T03:41:00;954.97;;;893.87;;
14698;SDS011;7439;50.804;4.602;2022-11-20T03:43:28;960.80;;;899.53;;
14698;SDS011;7439;50.804;4.602;2022-11-20T03:45:55;961.67;;;899.90;;
14698;SDS011;7439;50.804;4.602;2022-11-20T03:48:23;968.50;;;906.57;;
14698;SDS011;7439;50.804;4.602;2022-11-20T03:50:52;966.97;;;904.77;;
14698;SDS011;7439;50.804;4.602;2022-11-20T03:53:20;974.77;;;912.37;;
14698;SDS011;7439;50.804;4.602;2022-11-20T03:55:50;984.33;;;921.70;;
14698;SDS011;7439;50.804;4.602;2022-11-20T03:58:18;987.70;;;924.57;;
14698;SDS011;7439;50.804;4.602;2022-11-20T04:00:45;989.40;;;926.63;;
14698;SDS011;7439;50.804;4.602;2022-11-20T04:03:13;980.87;;;918.67;;
14698;SDS011;7439;50.804;4.602;2022-11-20T04:05:40;991.73;;;928.43;;
14698;SDS011;7439;50.804;4.602;2022-11-20T04:08:09;1000.20;;;936.00;;
14698;SDS011;7439;50.804;4.602;2022-11-20T04:10:36;999.87;;;936.00;;
14698;SDS011;7439;50.804;4.602;2022-11-20T04:13:03;997.97;;;934.13;;
14698;SDS011;7439;50.804;4.602;2022-11-20T04:15:31;991.43;;;927.87;;
14698;SDS011;7439;50.804;4.602;2022-11-20T04:17:58;985.07;;;921.97;;
14698;SDS011;7439;50.804;4.602;2022-11-20T04:20:25;988.00;;;925.23;;
14698;SDS011;7439;50.804;4.602;2022-11-20T04:22:53;990.17;;;927.43;;
14698;SDS011;7439;50.804;4.602;2022-11-20T04:25:22;985.63;;;923.03;;
14698;SDS011;7439;50.804;4.602;2022-11-20T04:27:49;982.40;;;920.20;;
14698;SDS011;7439;50.804;4.602;2022-11-20T04:30:17;971.37;;;909.90;;
14698;SDS011;7439;50.804;4.602;2022-11-20T04:32:44;963.87;;;903.10;;
14698;SDS011;7439;50.804;4.602;2022-11-20T04:35:11;967.00;;;905.73;;
14698;SDS011;7439;50.804;4.602;2022-11-20T04:37:39;973.70;;;912.77;;
14698;SDS011;7439;50.804;4.602;2022-11-20T04:40:06;961.90;;;901.23;;
14698;SDS011;7439;50.804;4.602;2022-11-20T04:42:35;960.77;;;899.77;;
14698;SDS011;7439;50.804;4.602;2022-11-20T04:45:02;969.03;;;907.43;;
14698;SDS011;7439;50.804;4.602;2022-11-20T04:47:30;960.27;;;900.13;;
14698;SDS011;7439;50.804;4.602;2022-11-20T04:49:57;957.10;;;897.30;;
14698;SDS011;7439;50.804;4.602;2022-11-20T04:52:25;955.23;;;895.03;;
14698;SDS011;7439;50.804;4.602;2022-11-20T04:54:52;963.13;;;902.67;;
14698;SDS011;7439;50.804;4.602;2022-11-20T04:57:19;970.37;;;909.20;;
14698;SDS011;7439;50.804;4.602;2022-11-20T04:59:48;972.13;;;910.77;;
14698;SDS011;7439;50.804;4.602;2022-11-20T05:02:15;969.30;;;908.23;;
14698;SDS011;7439;50.804;4.602;2022-11-20T05:04:43;980.77;;;918.63;;
14698;SDS011;7439;50.804;4.602;2022-11-20T05:07:10;974.07;;;912.40;;
14698;SDS011;7439;50.804;4.602;2022-11-20T05:09:38;974.37;;;913.07;;
14698;SDS011;7439;50.804;4.602;2022-11-20T05:12:06;975.57;;;913.67;;
14698;SDS011;7439;50.804;4.602;2022-11-20T05:14:34;981.00;;;918.80;;
14698;SDS011;7439;50.804;4.602;2022-11-20T05:17:02;981.30;;;918.50;;
14698;SDS011;7439;50.804;4.602;2022-11-20T05:19:30;975.83;;;913.57;;
14698;SDS011;7439;50.804;4.602;2022-11-20T05:21:57;968.40;;;906.50;;
14698;SDS011;7439;50.804;4.602;2022-11-20T05:24:24;970.17;;;908.73;;
14698;SDS011;7439;50.804;4.602;2022-11-20T05:26:52;969.70;;;907.93;;
14698;SDS011;7439;50.804;4.602;2022-11-20T05:29:19;966.07;;;904.17;;
14698;SDS011;7439;50.804;4.602;2022-11-20T05:31:46;975.93;;;912.97;;
14698;SDS011;7439;50.804;4.602;2022-11-20T05:34:15;966.33;;;903.97;;
14698;SDS011;7439;50.804;4.602;2022-11-20T05:36:43;971.90;;;909.30;;
14698;SDS011;7439;50.804;4.602;2022-11-20T05:39:10;978.37;;;915.50;;
14698;SDS011;7439;50.804;4.602;2022-11-20T05:41:37;980.33;;;917.57;;
14698;SDS011;7439;50.804;4.602;2022-11-20T05:44:05;979.73;;;916.37;;
14698;SDS011;7439;50.804;4.602;2022-11-20T05:46:32;981.90;;;918.97;;
14698;SDS011;7439;50.804;4.602;2022-11-20T05:48:59;968.40;;;906.00;;
14698;SDS011;7439;50.804;4.602;2022-11-20T05:51:28;981.60;;;918.00;;
14698;SDS011;7439;50.804;4.602;2022-11-20T05:53:56;984.30;;;920.93;;
14698;SDS011;7439;50.804;4.602;2022-11-20T05:56:23;978.00;;;915.23;;
14698;SDS011;7439;50.804;4.602;2022-11-20T05:58:51;976.60;;;913.07;;
14698;SDS011;7439;50.804;4.602;2022-11-20T06:01:19;979.17;;;916.10;;
14698;SDS011;7439;50.804;4.602;2022-11-20T06:03:46;982.77;;;919.20;;
14698;SDS011;7439;50.804;4.602;2022-11-20T06:06:16;966.13;;;903.43;;
14698;SDS011;7439;50.804;4.602;2022-11-20T06:08:45;981.50;;;917.43;;
14698;SDS011;7439;50.804;4.602;2022-11-20T06:11:13;978.80;;;914.50;;
14698;SDS011;7439;50.804;4.602;2022-11-20T06:13:41;977.00;;;913.33;;
14698;SDS011;7439;50.804;4.602;2022-11-20T06:16:09;976.80;;;912.73;;
14698;SDS011;7439;50.804;4.602;2022-11-20T06:18:36;969.73;;;906.00;;
14698;SDS011;7439;50.804;4.602;2022-11-20T06:21:04;969.93;;;905.53;;
14698;SDS011;7439;50.804;4.602;2022-11-20T06:23:33;977.17;;;912.47;;
14698;SDS011;7439;50.804;4.602;2022-11-20T06:26:05;970.53;;;906.03;;
14698;SDS011;7439;50.804;4.602;2022-11-20T06:28:33;976.20;;;910.40;;
14698;SDS011;7439;50.804;4.602;2022-11-20T06:31:01;964.90;;;901.13;;
14698;SDS011;7439;50.804;4.602;2022-11-20T06:33:28;964.63;;;899.43;;
14698;SDS011;7439;50.804;4.602;2022-11-20T06:35:56;961.47;;;896.33;;
14698;SDS011;7439;50.804;4.602;2022-11-20T06:38:23;956.17;;;890.77;;
14698;SDS011;7439;50.804;4.602;2022-11-20T06:40:50;963.60;;;899.17;;
14698;SDS011;7439;50.804;4.602;2022-11-20T06:43:19;958.53;;;893.27;;
14698;SDS011;7439;50.804;4.602;2022-11-20T06:45:51;951.90;;;886.80;;
14698;SDS011;7439;50.804;4.602;2022-11-20T06:48:19;956.67;;;891.93;;
14698;SDS011;7439;50.804;4.602;2022-11-20T06:50:46;961.27;;;896.50;;
14698;SDS011;7439;50.804;4.602;2022-11-20T06:53:14;960.30;;;894.70;;
14698;SDS011;7439;50.804;4.602;2022-11-20T06:55:42;971.50;;;905.03;;
14698;SDS011;7439;50.804;4.602;2022-11-20T06:58:09;950.03;;;884.47;;
14698;SDS011;7439;50.804;4.602;2022-11-20T07:00:38;966.33;;;902.23;;
14698;SDS011;7439;50.804;4.602;2022-11-20T07:03:06;953.93;;;891.10;;
14698;SDS011;7439;50.804;4.602;2022-11-20T07:05:34;948.57;;;885.27;;
14698;SDS011;7439;50.804;4.602;2022-11-20T07:08:01;958.27;;;894.07;;
14698;SDS011;7439;50.804;4.602;2022-11-20T07:10:29;952.30;;;888.60;;
14698;SDS011;7439;50.804;4.602;2022-11-20T07:12:57;960.20;;;897.03;;
14698;SDS011;7439;50.804;4.602;2022-11-20T07:15:25;952.77;;;890.23;;
14698;SDS011;7439;50.804;4.602;2022-11-20T07:17:54;953.83;;;890.83;;
14698;SDS011;7439;50.804;4.602;2022-11-20T07:20:21;955.80;;;893.40;;
14698;SDS011;7439;50.804;4.602;2022-11-20T07:22:52;947.63;;;885.43;;
14698;SDS011;7439;50.804;4.602;2022-11-20T07:25:20;959.90;;;896.87;;
14698;SDS011;7439;50.804;4.602;2022-11-20T07:27:47;967.90;;;904.33;;
14698;SDS011;7439;50.804;4.602;2022-11-20T07:30:15;977.87;;;914.07;;
14698;SDS011;7439;50.804;4.602;2022-11-20T07:32:42;976.13;;;912.83;;
14698;SDS011;7439;50.804;4.602;2022-11-20T07:35:14;976.30;;;912.87;;
14698;SDS011;7439;50.804;4.602;2022-11-20T07:37:41;977.70;;;913.83;;
14698;SDS011;7439;50.804;4.602;2022-11-20T07:40:11;978.70;;;914.67;;
14698;SDS011;7439;50.804;4.602;2022-11-20T07:42:38;982.17;;;917.80;;
14698;SDS011;7439;50.804;4.602;2022-11-20T07:45:06;991.20;;;926.73;;
14698;SDS011;7439;50.804;4.602;2022-11-20T07:47:34;988.33;;;923.03;;
14698;SDS011;7439;50.804;4.602;2022-11-20T07:50:02;997.50;;;932.20;;
14698;SDS011;7439;50.804;4.602;2022-11-20T07:52:31;996.73;;;931.00;;
14698;SDS011;7439;50.804;4.602;2022-11-20T07:54:58;1000.80;;;934.77;;
14698;SDS011;7439;50.804;4.602;2022-11-20T07:57:26;996.83;;;931.10;;
14698;SDS011;7439;50.804;4.602;2022-11-20T07:59:53;1007.27;;;940.40;;
14698;SDS011;7439;50.804;4.602;2022-11-20T08:02:20;995.53;;;930.30;;
14698;SDS011;7439;50.804;4.602;2022-11-20T08:04:48;993.30;;;927.60;;
14698;SDS011;7439;50.804;4.602;2022-11-20T08:07:15;989.77;;;924.17;;
14698;SDS011;7439;50.804;4.602;2022-11-20T08:09:44;990.97;;;925.63;;
14698;SDS011;7439;50.804;4.602;2022-11-20T08:12:15;995.07;;;929.60;;
14698;SDS011;7439;50.804;4.602;2022-11-20T08:15:01;982.90;;;918.93;;
14698;SDS011;7439;50.804;4.602;2022-11-20T08:17:29;977.60;;;914.03;;
14698;SDS011;7439;50.804;4.602;2022-11-20T08:19:56;978.63;;;918.93;;
14698;SDS011;7439;50.804;4.602;2022-11-20T08:22:24;979.50;;;917.47;;
14698;SDS011;7439;50.804;4.602;2022-11-20T08:24:53;991.70;;;930.40;;
14698;SDS011;7439;50.804;4.602;2022-11-20T08:27:20;979.43;;;918.07;;
14698;SDS011;7439;50.804;4.602;2022-11-20T08:29:47;984.23;;;922.60;;
14698;SDS011;7439;50.804;4.602;2022-11-20T08:32:15;984.60;;;922.83;;
14698;SDS011;7439;50.804;4.602;2022-11-20T08:34:42;982.93;;;920.70;;
14698;SDS011;7439;50.804;4.602;2022-11-20T08:37:09;991.23;;;928.23;;
14698;SDS011;7439;50.804;4.602;2022-11-20T08:39:37;993.63;;;930.77;;
14698;SDS011;7439;50.804;4.602;2022-11-20T08:42:07;998.53;;;934.70;;
14698;SDS011;7439;50.804;4.602;2022-11-20T08:44:35;1000.80;;;936.87;;
14698;SDS011;7439;50.804;4.602;2022-11-20T08:47:02;993.37;;;929.50;;
14698;SDS011;7439;50.804;4.602;2022-11-20T08:49:29;998.47;;;934.73;;
14698;SDS011;7439;50.804;4.602;2022-11-20T08:51:57;1005.93;;;941.70;;
14698;SDS011;7439;50.804;4.602;2022-11-20T08:54:24;1019.10;;;954.33;;
14698;SDS011;7439;50.804;4.602;2022-11-20T08:56:51;1017.20;;;952.30;;
14698;SDS011;7439;50.804;4.602;2022-11-20T08:59:20;1005.03;;;940.53;;
14698;SDS011;7439;50.804;4.602;2022-11-20T09:01:48;1007.90;;;944.43;;
14698;SDS011;7439;50.804;4.602;2022-11-20T09:04:15;1002.43;;;939.97;;
14698;SDS011;7439;50.804;4.602;2022-11-20T09:06:42;989.07;;;926.63;;
14698;SDS011;7439;50.804;4.602;2022-11-20T09:09:10;976.13;;;915.47;;
14698;SDS011;7439;50.804;4.602;2022-11-20T09:11:37;957.87;;;898.87;;
14698;SDS011;7439;50.804;4.602;2022-11-20T09:14:04;972.33;;;912.33;;
14698;SDS011;7439;50.804;4.602;2022-11-20T09:16:33;963.87;;;904.97;;
14698;SDS011;7439;50.804;4.602;2022-11-20T09:19:01;966.00;;;907.00;;
14698;SDS011;7439;50.804;4.602;2022-11-20T09:21:28;964.03;;;905.37;;
14698;SDS011;7439;50.804;4.602;2022-11-20T09:23:55;970.70;;;911.43;;
14698;SDS011;7439;50.804;4.602;2022-11-20T09:26:23;957.70;;;899.47;;
14698;SDS011;7439;50.804;4.602;2022-11-20T09:28:50;965.23;;;907.10;;
14698;SDS011;7439;50.804;4.602;2022-11-20T09:31:19;961.27;;;903.27;;
14698;SDS011;7439;50.804;4.602;2022-11-20T09:33:50;963.13;;;904.67;;
14698;SDS011;7439;50.804;4.602;2022-11-20T09:36:17;974.80;;;915.47;;
14698;SDS011;7439;50.804;4.602;2022-11-20T09:38:45;966.07;;;906.97;;
14698;SDS011;7439;50.804;4.602;2022-11-20T09:41:18;958.67;;;899.97;;
14698;SDS011;7439;50.804;4.602;2022-11-20T09:43:51;950.27;;;893.70;;
14698;SDS011;7439;50.804;4.602;2022-11-20T09:46:23;951.27;;;894.10;;
14698;SDS011;7439;50.804;4.602;2022-11-20T09:48:58;955.93;;;898.23;;
14698;SDS011;7439;50.804;4.602;2022-11-20T09:51:35;945.10;;;888.27;;
14698;SDS011;7439;50.804;4.602;2022-11-20T09:54:06;943.07;;;887.03;;
14698;SDS011;7439;50.804;4.602;2022-11-20T09:56:36;941.87;;;885.43;;
14698;SDS011;7439;50.804;4.602;2022-11-20T09:59:05;931.30;;;875.13;;
14698;SDS011;7439;50.804;4.602;2022-11-20T10:01:34;929.00;;;873.53;;
14698;SDS011;7439;50.804;4.602;2022-11-20T10:04:06;916.47;;;861.17;;
14698;SDS011;7439;50.804;4.602;2022-11-20T10:06:37;924.27;;;869.13;;
14698;SDS011;7439;50.804;4.602;2022-11-20T10:09:14;923.30;;;868.67;;
14698;SDS011;7439;50.804;4.602;2022-11-20T10:11:46;909.60;;;855.83;;
14698;SDS011;7439;50.804;4.602;2022-11-20T10:14:17;895.20;;;843.10;;
14698;SDS011;7439;50.804;4.602;2022-11-20T10:16:48;896.87;;;844.37;;
14698;SDS011;7439;50.804;4.602;2022-11-20T10:19:27;894.40;;;842.67;;
14698;SDS011;7439;50.804;4.602;2022-11-20T10:21:59;879.00;;;828.27;;
14698;SDS011;7439;50.804;4.602;2022-11-20T10:24:34;868.83;;;820.23;;
14698;SDS011;7439;50.804;4.602;2022-11-20T10:27:08;856.07;;;808.07;;
14698;SDS011;7439;50.804;4.602;2022-11-20T10:29:39;831.30;;;785.70;;
14698;SDS011;7439;50.804;4.602;2022-11-20T10:32:10;836.30;;;789.53;;
14698;SDS011;7439;50.804;4.602;2022-11-20T10:34:42;815.63;;;770.57;;
14698;SDS011;7439;50.804;4.602;2022-11-20T10:37:15;792.63;;;749.17;;
14698;SDS011;7439;50.804;4.602;2022-11-20T10:39:44;764.43;;;722.97;;
14698;SDS011;7439;50.804;4.602;2022-11-20T10:42:14;732.83;;;694.20;;
14698;SDS011;7439;50.804;4.602;2022-11-20T10:44:43;707.00;;;671.57;;
14698;SDS011;7439;50.804;4.602;2022-11-20T10:47:30;688.50;;;653.27;;
14698;SDS011;7439;50.804;4.602;2022-11-20T10:50:01;682.63;;;647.30;;
14698;SDS011;7439;50.804;4.602;2022-11-20T10:52:32;622.10;;;591.13;;
14698;SDS011;7439;50.804;4.602;2022-11-20T10:55:05;624.80;;;593.80;;
14698;SDS011;7439;50.804;4.602;2022-11-20T10:57:41;661.30;;;627.83;;
14698;SDS011;7439;50.804;4.602;2022-11-20T11:00:12;649.33;;;616.47;;
14698;SDS011;7439;50.804;4.602;2022-11-20T11:02:43;616.73;;;586.47;;
14698;SDS011;7439;50.804;4.602;2022-11-20T11:05:27;593.77;;;565.37;;
14698;SDS011;7439;50.804;4.602;2022-11-20T11:07:57;537.33;;;512.23;;
14698;SDS011;7439;50.804;4.602;2022-11-20T11:10:26;550.97;;;524.60;;
14698;SDS011;7439;50.804;4.602;2022-11-20T11:12:55;518.00;;;493.67;;
14698;SDS011;7439;50.804;4.602;2022-11-20T11:15:26;506.80;;;483.43;;
14698;SDS011;7439;50.804;4.602;2022-11-20T11:17:53;474.50;;;452.93;;
14698;SDS011;7439;50.804;4.602;2022-11-20T11:20:21;459.87;;;439.23;;
14698;SDS011;7439;50.804;4.602;2022-11-20T11:22:50;437.20;;;417.93;;
14698;SDS011;7439;50.804;4.602;2022-11-20T11:25:19;412.20;;;393.70;;
14698;SDS011;7439;50.804;4.602;2022-11-20T11:27:47;381.27;;;364.70;;
14698;SDS011;7439;50.804;4.602;2022-11-20T11:30:15;370.63;;;354.63;;
14698;SDS011;7439;50.804;4.602;2022-11-20T11:32:43;350.20;;;335.43;;
14698;SDS011;7439;50.804;4.602;2022-11-20T11:35:21;328.50;;;315.13;;
14698;SDS011;7439;50.804;4.602;2022-11-20T11:37:50;322.73;;;308.93;;
14698;SDS011;7439;50.804;4.602;2022-11-20T11:40:19;310.57;;;298.17;;
14698;SDS011;7439;50.804;4.602;2022-11-20T11:42:50;287.27;;;275.80;;
14698;SDS011;7439;50.804;4.602;2022-11-20T11:45:19;281.33;;;270.43;;
14698;SDS011;7439;50.804;4.602;2022-11-20T11:47:46;264.03;;;253.73;;
14698;SDS011;7439;50.804;4.602;2022-11-20T11:50:15;252.33;;;242.63;;
14698;SDS011;7439;50.804;4.602;2022-11-20T11:52:44;233.10;;;223.90;;
14698;SDS011;7439;50.804;4.602;2022-11-20T11:55:17;416.93;;;398.93;;
14698;SDS011;7439;50.804;4.602;2022-11-20T11:57:47;477.90;;;457.60;;
14698;SDS011;7439;50.804;4.602;2022-11-20T12:00:17;517.70;;;494.20;;
14698;SDS011;7439;50.804;4.602;2022-11-20T12:02:49;541.30;;;516.20;;
14698;SDS011;7439;50.804;4.602;2022-11-20T12:05:22;563.20;;;537.03;;
14698;SDS011;7439;50.804;4.602;2022-11-20T12:07:51;566.47;;;540.40;;
14698;SDS011;7439;50.804;4.602;2022-11-20T12:10:22;566.00;;;539.90;;
14698;SDS011;7439;50.804;4.602;2022-11-20T12:12:52;564.33;;;538.50;;
14698;SDS011;7439;50.804;4.602;2022-11-20T12:15:23;582.23;;;555.77;;
14698;SDS011;7439;50.804;4.602;2022-11-20T12:17:53;561.87;;;535.60;;
14698;SDS011;7439;50.804;4.602;2022-11-20T12:20:20;580.47;;;552.43;;
14698;SDS011;7439;50.804;4.602;2022-11-20T12:22:51;612.80;;;582.40;;
14698;SDS011;7439;50.804;4.602;2022-11-20T12:25:24;627.80;;;596.63;;
14698;SDS011;7439;50.804;4.602;2022-11-20T12:27:59;652.77;;;619.83;;
14698;SDS011;7439;50.804;4.602;2022-11-20T12:30:29;685.23;;;649.73;;
14698;SDS011;7439;50.804;4.602;2022-11-20T12:33:04;725.37;;;687.20;;
14698;SDS011;7439;50.804;4.602;2022-11-20T12:35:47;749.03;;;709.33;;
14698;SDS011;7439;50.804;4.602;2022-11-20T12:41:03;811.97;;;767.93;;
14698;SDS011;7439;50.804;4.602;2022-11-20T12:43:34;839.53;;;793.23;;
14698;SDS011;7439;50.804;4.602;2022-11-20T12:46:24;849.40;;;802.00;;
14698;SDS011;7439;50.804;4.602;2022-11-20T12:49:04;861.37;;;813.27;;
14698;SDS011;7439;50.804;4.602;2022-11-20T12:51:47;859.33;;;811.27;;
14698;SDS011;7439;50.804;4.602;2022-11-20T12:54:29;858.90;;;810.93;;
14698;SDS011;7439;50.804;4.602;2022-11-20T12:57:05;867.87;;;819.37;;
14698;SDS011;7439;50.804;4.602;2022-11-20T12:59:44;870.23;;;821.17;;
14698;SDS011;7439;50.804;4.602;2022-11-20T13:02:18;861.03;;;812.97;;
14698;SDS011;7439;50.804;4.602;2022-11-20T13:04:52;863.57;;;814.90;;
14698;SDS011;7439;50.804;4.602;2022-11-20T13:07:23;852.77;;;804.63;;
14698;SDS011;7439;50.804;4.602;2022-11-20T13:09:51;856.93;;;808.27;;
14698;SDS011;7439;50.804;4.602;2022-11-20T13:12:22;848.67;;;801.17;;
14698;SDS011;7439;50.804;4.602;2022-11-20T13:14:52;843.60;;;796.47;;
14698;SDS011;7439;50.804;4.602;2022-11-20T13:17:24;868.33;;;817.80;;
14698;SDS011;7439;50.804;4.602;2022-11-20T13:19:53;849.60;;;801.67;;
14698;SDS011;7439;50.804;4.602;2022-11-20T13:22:24;845.70;;;798.53;;
14698;SDS011;7439;50.804;4.602;2022-11-20T13:24:51;865.47;;;816.53;;
14698;SDS011;7439;50.804;4.602;2022-11-20T13:27:21;850.50;;;802.97;;
14698;SDS011;7439;50.804;4.602;2022-11-20T13:29:59;852.73;;;805.47;;
14698;SDS011;7439;50.804;4.602;2022-11-20T13:32:27;810.70;;;749.77;;
14698;SDS011;7439;50.804;4.602;2022-11-20T13:34:58;832.93;;;787.50;;
14698;SDS011;7439;50.804;4.602;2022-11-20T13:37:28;836.47;;;790.87;;
14698;SDS011;7439;50.804;4.602;2022-11-20T13:42:54;823.23;;;779.10;;
14698;SDS011;7439;50.804;4.602;2022-11-20T13:45:23;820.50;;;777.10;;
14698;SDS011;7439;50.804;4.602;2022-11-20T13:47:51;825.00;;;781.60;;
14698;SDS011;7439;50.804;4.602;2022-11-20T13:50:20;816.80;;;773.93;;
14698;SDS011;7439;50.804;4.602;2022-11-20T13:52:50;814.47;;;772.30;;
14698;SDS011;7439;50.804;4.602;2022-11-20T13:55:21;819.73;;;777.03;;
14698;SDS011;7439;50.804;4.602;2022-11-20T14:00:41;820.63;;;778.17;;
14698;SDS011;7439;50.804;4.602;2022-11-20T14:03:12;808.40;;;752.60;;
14698;SDS011;7439;50.804;4.602;2022-11-20T14:05:45;856.67;;;773.40;;
14698;SDS011;7439;50.804;4.602;2022-11-20T14:08:17;825.53;;;782.47;;
14698;SDS011;7439;50.804;4.602;2022-11-20T14:10:48;823.70;;;780.90;;
14698;SDS011;7439;50.804;4.602;2022-11-20T14:13:15;834.33;;;791.20;;
14698;SDS011;7439;50.804;4.602;2022-11-20T14:15:45;821.50;;;778.93;;
14698;SDS011;7439;50.804;4.602;2022-11-20T14:18:21;840.63;;;796.30;;
14698;SDS011;7439;50.804;4.602;2022-11-20T14:20:48;833.83;;;790.23;;
14698;SDS011;7439;50.804;4.602;2022-11-20T14:23:23;840.13;;;795.63;;
14698;SDS011;7439;50.804;4.602;2022-11-20T14:25:50;845.53;;;800.53;;
14698;SDS011;7439;50.804;4.602;2022-11-20T14:28:20;832.97;;;788.43;;
14698;SDS011;7439;50.804;4.602;2022-11-20T14:30:51;822.10;;;777.97;;